sensor_id;sensor_type;location;lat;lon;timestamp;pressure;altitude;pressure_sealevel;temperature;humidity
55418;BME280;41287;47.554;7.844;2023-08-17T00:00:12;98051.97;;;23.82;60.64
55418;BME280;41287;47.554;7.844;2023-08-17T00:02:41;98046.50;;;23.82;60.71
55418;BME280;41287;47.554;7.844;2023-08-17T00:05:06;98048.50;;;23.81;60.94
55418;BME280;41287;47.554;7.844;2023-08-17T00:07:32;98043.78;;;23.82;60.89
55418;BME280;41287;47.554;7.844;2023-08-17T00:09:58;98035.56;;;23.82;60.93
55418;BME280;41287;47.554;7.844;2023-08-17T00:12:24;98036.34;;;23.82;60.65
55418;BME280;41287;47.554;7.844;2023-08-17T00:14:49;98043.78;;;23.82;60.72
55418;BME280;41287;47.554;7.844;2023-08-17T00:17:14;98043.00;;;23.81;60.80
55418;BME280;41287;47.554;7.844;2023-08-17T00:19:39;98043.78;;;23.82;60.66
55418;BME280;41287;47.554;7.844;2023-08-17T00:22:05;98047.69;;;23.81;60.73
55418;BME280;41287;47.554;7.844;2023-08-17T00:24:30;98048.50;;;23.81;60.85
55418;BME280;41287;47.554;7.844;2023-08-17T00:26:55;98050.03;;;23.82;60.89
55418;BME280;41287;47.554;7.844;2023-08-17T00:29:21;98048.50;;;23.81;60.73
55418;BME280;41287;47.554;7.844;2023-08-17T00:31:48;98041.44;;;23.80;60.81
55418;BME280;41287;47.554;7.844;2023-08-17T00:34:14;98050.03;;;23.82;60.95
55418;BME280;41287;47.554;7.844;2023-08-17T00:36:39;98051.22;;;23.81;60.66
55418;BME280;41287;47.554;7.844;2023-08-17T00:39:04;98051.97;;;23.82;60.98
55418;BME280;41287;47.554;7.844;2023-08-17T00:41:31;98049.25;;;23.82;60.80
55418;BME280;41287;47.554;7.844;2023-08-17T00:43:57;98038.31;;;23.82;60.82
55418;BME280;41287;47.554;7.844;2023-08-17T00:46:24;98054.72;;;23.82;60.92
55418;BME280;41287;47.554;7.844;2023-08-17T00:48:52;98039.88;;;23.83;60.87
55418;BME280;41287;47.554;7.844;2023-08-17T00:51:21;98039.09;;;23.82;60.96
55418;BME280;41287;47.554;7.844;2023-08-17T00:53:47;98035.56;;;23.82;60.75
55418;BME280;41287;47.554;7.844;2023-08-17T00:56:13;98041.84;;;23.82;60.85
55418;BME280;41287;47.554;7.844;2023-08-17T00:58:40;98045.34;;;23.83;60.72
55418;BME280;41287;47.554;7.844;2023-08-17T01:01:06;98045.34;;;23.83;60.70
55418;BME280;41287;47.554;7.844;2023-08-17T01:03:32;98044.56;;;23.82;60.76
55418;BME280;41287;47.554;7.844;2023-08-17T01:05:57;98050.03;;;23.82;60.77
55418;BME280;41287;47.554;7.844;2023-08-17T01:08:22;98051.97;;;23.82;60.83
55418;BME280;41287;47.554;7.844;2023-08-17T01:14:09;98045.75;;;23.81;60.65
55418;BME280;41287;47.554;7.844;2023-08-17T01:16:42;98050.03;;;23.82;60.75
55418;BME280;41287;47.554;7.844;2023-08-17T01:19:09;98052.78;;;23.82;60.68
55418;BME280;41287;47.554;7.844;2023-08-17T01:21:49;98055.13;;;23.80;60.77
55418;BME280;41287;47.554;7.844;2023-08-17T01:24:15;98055.50;;;23.82;60.90
55418;BME280;41287;47.554;7.844;2023-08-17T01:26:41;98053.97;;;23.81;60.85
55418;BME280;41287;47.554;7.844;2023-08-17T01:29:06;98051.97;;;23.82;60.79
55418;BME280;41287;47.554;7.844;2023-08-17T01:31:37;98042.22;;;23.81;60.59
55418;BME280;41287;47.554;7.844;2023-08-17T01:34:08;98043.78;;;23.82;60.77
55418;BME280;41287;47.554;7.844;2023-08-17T01:36:43;98047.69;;;23.81;60.94
55418;BME280;41287;47.554;7.844;2023-08-17T01:39:12;98045.34;;;23.83;60.79
55418;BME280;41287;47.554;7.844;2023-08-17T01:41:41;98047.31;;;23.82;60.93
55418;BME280;41287;47.554;7.844;2023-08-17T01:44:09;98049.25;;;23.82;60.85
55418;BME280;41287;47.554;7.844;2023-08-17T01:46:35;98049.25;;;23.82;60.89
55418;BME280;41287;47.554;7.844;2023-08-17T01:49:00;98043.78;;;23.82;60.83
55418;BME280;41287;47.554;7.844;2023-08-17T01:51:26;98046.50;;;23.82;60.82
55418;BME280;41287;47.554;7.844;2023-08-17T01:53:51;98036.34;;;23.82;60.68
55418;BME280;41287;47.554;7.844;2023-08-17T01:56:17;98043.00;;;23.81;60.83
55418;BME280;41287;47.554;7.844;2023-08-17T01:58:43;98039.88;;;23.83;60.72
55418;BME280;41287;47.554;7.844;2023-08-17T02:01:08;98045.34;;;23.83;60.91
55418;BME280;41287;47.554;7.844;2023-08-17T02:03:33;98050.03;;;23.82;60.79
55418;BME280;41287;47.554;7.844;2023-08-17T02:06:01;98050.03;;;23.82;61.03
55418;BME280;41287;47.554;7.844;2023-08-17T02:08:26;98043.78;;;23.82;60.87
55418;BME280;41287;47.554;7.844;2023-08-17T02:10:52;98039.88;;;23.83;60.68
55418;BME280;41287;47.554;7.844;2023-08-17T02:13:18;98036.34;;;23.82;60.82
55418;BME280;41287;47.554;7.844;2023-08-17T02:15:44;98050.84;;;23.83;60.99
55418;BME280;41287;47.554;7.844;2023-08-17T02:18:09;98037.94;;;23.83;60.83
55418;BME280;41287;47.554;7.844;2023-08-17T02:20:34;98037.16;;;23.83;60.67
55418;BME280;41287;47.554;7.844;2023-08-17T02:23:00;98039.09;;;23.82;60.82
55418;BME280;41287;47.554;7.844;2023-08-17T02:25:25;98037.16;;;23.83;61.06
55418;BME280;41287;47.554;7.844;2023-08-17T02:27:52;98045.34;;;23.83;60.92
55418;BME280;41287;47.554;7.844;2023-08-17T02:30:17;98028.94;;;23.83;60.91
55418;BME280;41287;47.554;7.844;2023-08-17T02:32:42;98037.16;;;23.83;60.84
55418;BME280;41287;47.554;7.844;2023-08-17T02:35:08;98031.69;;;23.83;60.92
55418;BME280;41287;47.554;7.844;2023-08-17T02:37:33;98038.31;;;23.82;60.86
55418;BME280;41287;47.554;7.844;2023-08-17T02:40:01;98037.94;;;23.83;60.71
55418;BME280;41287;47.554;7.844;2023-08-17T02:42:32;98034.41;;;23.83;60.68
55418;BME280;41287;47.554;7.844;2023-08-17T02:44:58;98034.41;;;23.83;60.90
55418;BME280;41287;47.554;7.844;2023-08-17T02:47:23;98030.88;;;23.82;60.85
55418;BME280;41287;47.554;7.844;2023-08-17T02:49:48;98033.63;;;23.82;60.90
55418;BME280;41287;47.554;7.844;2023-08-17T02:52:16;98032.84;;;23.82;60.91
55418;BME280;41287;47.554;7.844;2023-08-17T02:54:43;98030.53;;;23.84;60.76
55418;BME280;41287;47.554;7.844;2023-08-17T02:57:08;98027.00;;;23.83;60.91
55418;BME280;41287;47.554;7.844;2023-08-17T02:59:33;98027.00;;;23.83;60.71
55418;BME280;41287;47.554;7.844;2023-08-17T03:01:59;98028.16;;;23.82;60.74
55418;BME280;41287;47.554;7.844;2023-08-17T03:04:24;98020.72;;;23.83;60.87
55418;BME280;41287;47.554;7.844;2023-08-17T03:06:50;98024.25;;;23.83;60.61
55418;BME280;41287;47.554;7.844;2023-08-17T03:09:15;98021.53;;;23.83;60.71
55418;BME280;41287;47.554;7.844;2023-08-17T03:11:40;98021.88;;;23.82;60.68
55418;BME280;41287;47.554;7.844;2023-08-17T03:14:06;98014.47;;;23.82;60.88
55418;BME280;41287;47.554;7.844;2023-08-17T03:16:31;98026.19;;;23.83;61.00
55418;BME280;41287;47.554;7.844;2023-08-17T03:18:56;98023.47;;;23.83;60.77
55418;BME280;41287;47.554;7.844;2023-08-17T03:21:22;98021.53;;;23.83;60.98
55418;BME280;41287;47.554;7.844;2023-08-17T03:23:49;98023.47;;;23.83;61.04
55418;BME280;41287;47.554;7.844;2023-08-17T03:26:15;98013.31;;;23.83;60.94
55418;BME280;41287;47.554;7.844;2023-08-17T03:28:40;98018.00;;;23.83;60.94
55418;BME280;41287;47.554;7.844;2023-08-17T03:31:06;98015.25;;;23.83;60.70
55418;BME280;41287;47.554;7.844;2023-08-17T03:33:32;98027.00;;;23.83;60.69
55418;BME280;41287;47.554;7.844;2023-08-17T03:35:57;98024.25;;;23.83;61.06
55418;BME280;41287;47.554;7.844;2023-08-17T03:38:23;98028.16;;;23.82;60.78
55418;BME280;41287;47.554;7.844;2023-08-17T03:40:48;98033.25;;;23.84;60.81
55418;BME280;41287;47.554;7.844;2023-08-17T03:43:15;98029.72;;;23.83;60.77
55418;BME280;41287;47.554;7.844;2023-08-17T03:45:41;98028.94;;;23.83;60.67
55418;BME280;41287;47.554;7.844;2023-08-17T03:48:07;98029.72;;;23.83;61.03
55418;BME280;41287;47.554;7.844;2023-08-17T03:50:33;98027.00;;;23.83;60.76
55418;BME280;41287;47.554;7.844;2023-08-17T03:52:58;98025.84;;;23.84;60.67
55418;BME280;41287;47.554;7.844;2023-08-17T03:55:25;98028.94;;;23.83;61.00
55418;BME280;41287;47.554;7.844;2023-08-17T03:57:51;98025.41;;;23.82;60.69
55418;BME280;41287;47.554;7.844;2023-08-17T04:00:16;98037.94;;;23.83;60.90
55418;BME280;41287;47.554;7.844;2023-08-17T04:02:42;98037.56;;;23.85;60.91
55418;BME280;41287;47.554;7.844;2023-08-17T04:05:08;98040.69;;;23.83;60.66
55418;BME280;41287;47.554;7.844;2023-08-17T04:07:33;98049.69;;;23.84;60.84
55418;BME280;41287;47.554;7.844;2023-08-17T04:10:01;98048.88;;;23.83;60.94
55418;BME280;41287;47.554;7.844;2023-08-17T04:12:27;98039.88;;;23.83;60.81
55418;BME280;41287;47.554;7.844;2023-08-17T04:14:52;98050.47;;;23.84;60.84
55418;BME280;41287;47.554;7.844;2023-08-17T04:17:19;98037.94;;;23.83;60.88
55418;BME280;41287;47.554;7.844;2023-08-17T04:19:47;98050.47;;;23.84;60.87
55418;BME280;41287;47.554;7.844;2023-08-17T04:22:12;98039.53;;;23.84;60.91
55418;BME280;41287;47.554;7.844;2023-08-17T04:24:37;98049.69;;;23.84;60.81
55418;BME280;41287;47.554;7.844;2023-08-17T04:27:03;98055.16;;;23.84;60.94
55418;BME280;41287;47.554;7.844;2023-08-17T04:29:31;98052.41;;;23.84;60.66
55418;BME280;41287;47.554;7.844;2023-08-17T04:31:57;98049.69;;;23.84;60.91
55418;BME280;41287;47.554;7.844;2023-08-17T04:34:22;98041.47;;;23.84;60.91
55418;BME280;41287;47.554;7.844;2023-08-17T04:36:48;98041.91;;;23.86;60.71
55418;BME280;41287;47.554;7.844;2023-08-17T04:39:13;98043.84;;;23.85;60.86
55418;BME280;41287;47.554;7.844;2023-08-17T04:41:39;98050.91;;;23.86;60.82
55418;BME280;41287;47.554;7.844;2023-08-17T04:44:04;98050.09;;;23.86;60.62
55418;BME280;41287;47.554;7.844;2023-08-17T04:46:30;98050.91;;;23.86;60.37
55418;BME280;41287;47.554;7.844;2023-08-17T04:48:55;98050.09;;;23.86;60.47
55418;BME280;41287;47.554;7.844;2023-08-17T04:51:20;98043.84;;;23.85;60.44
55418;BME280;41287;47.554;7.844;2023-08-17T04:53:46;98039.16;;;23.86;60.34
55418;BME280;41287;47.554;7.844;2023-08-17T04:56:11;98044.63;;;23.86;60.25
55418;BME280;41287;47.554;7.844;2023-08-17T04:58:36;98052.06;;;23.85;60.33
55418;BME280;41287;47.554;7.844;2023-08-17T05:01:02;98043.06;;;23.85;61.04
55418;BME280;41287;47.554;7.844;2023-08-17T05:03:27;98048.53;;;23.85;61.90
55418;BME280;41287;47.554;7.844;2023-08-17T05:05:52;98052.41;;;23.84;62.21
55418;BME280;41287;47.554;7.844;2023-08-17T05:08:18;98038.72;;;23.84;62.71
55418;BME280;41287;47.554;7.844;2023-08-17T05:10:43;98040.69;;;23.83;62.90
55418;BME280;41287;47.554;7.844;2023-08-17T05:13:09;98046.16;;;23.83;61.54
55418;BME280;41287;47.554;7.844;2023-08-17T05:15:34;98038.72;;;23.84;62.97
55418;BME280;41287;47.554;7.844;2023-08-17T05:18:00;98051.63;;;23.83;62.94
55418;BME280;41287;47.554;7.844;2023-08-17T05:20:25;98050.84;;;23.83;63.08
55418;BME280;41287;47.554;7.844;2023-08-17T05:22:52;98046.50;;;23.82;63.47
55418;BME280;41287;47.554;7.844;2023-08-17T05:25:17;98049.25;;;23.82;63.34
55418;BME280;41287;47.554;7.844;2023-08-17T05:27:43;98045.75;;;23.81;63.67
55418;BME280;41287;47.554;7.844;2023-08-17T05:30:08;98051.97;;;23.82;63.79
55418;BME280;41287;47.554;7.844;2023-08-17T05:32:34;98053.97;;;23.81;63.76
55418;BME280;41287;47.554;7.844;2023-08-17T05:35:02;98059.44;;;23.81;63.85
55418;BME280;41287;47.554;7.844;2023-08-17T05:37:29;98060.97;;;23.82;64.04
55418;BME280;41287;47.554;7.844;2023-08-17T05:39:54;98064.50;;;23.83;64.57
55418;BME280;41287;47.554;7.844;2023-08-17T05:42:20;98066.47;;;23.82;64.60
55418;BME280;41287;47.554;7.844;2023-08-17T05:44:47;98066.47;;;23.82;64.41
55418;BME280;41287;47.554;7.844;2023-08-17T05:47:13;98072.72;;;23.83;64.79
55418;BME280;41287;47.554;7.844;2023-08-17T05:49:40;98071.94;;;23.82;65.22
55418;BME280;41287;47.554;7.844;2023-08-17T05:52:05;98074.66;;;23.82;65.17
55418;BME280;41287;47.554;7.844;2023-08-17T05:54:33;98082.88;;;23.82;65.14
55418;BME280;41287;47.554;7.844;2023-08-17T05:56:58;98071.94;;;23.82;65.27
55418;BME280;41287;47.554;7.844;2023-08-17T05:59:24;98084.81;;;23.82;65.43
55418;BME280;41287;47.554;7.844;2023-08-17T06:01:49;98086.41;;;23.83;64.60
55418;BME280;41287;47.554;7.844;2023-08-17T06:04:14;98086.41;;;23.83;64.63
55418;BME280;41287;47.554;7.844;2023-08-17T06:06:40;98091.88;;;23.83;64.16
55418;BME280;41287;47.554;7.844;2023-08-17T06:09:05;98088.00;;;23.84;63.88
55418;BME280;41287;47.554;7.844;2023-08-17T06:11:32;98096.19;;;23.84;63.38
55418;BME280;41287;47.554;7.844;2023-08-17T06:13:58;98092.31;;;23.85;62.96
55418;BME280;41287;47.554;7.844;2023-08-17T06:16:23;98092.31;;;23.85;62.75
55418;BME280;41287;47.554;7.844;2023-08-17T06:18:49;98093.09;;;23.85;62.71
55418;BME280;41287;47.554;7.844;2023-08-17T06:21:15;98093.88;;;23.86;62.41
55418;BME280;41287;47.554;7.844;2023-08-17T06:23:40;98099.38;;;23.86;62.15
55418;BME280;41287;47.554;7.844;2023-08-17T06:26:06;98096.63;;;23.86;62.25
55418;BME280;41287;47.554;7.844;2023-08-17T06:28:33;98102.91;;;23.86;61.88
55418;BME280;41287;47.554;7.844;2023-08-17T06:30:58;98098.22;;;23.87;61.96
55418;BME280;41287;47.554;7.844;2023-08-17T06:33:23;98103.69;;;23.87;61.67
55418;BME280;41287;47.554;7.844;2023-08-17T06:35:49;98108.38;;;23.86;61.89
55418;BME280;41287;47.554;7.844;2023-08-17T06:38:14;98101.75;;;23.87;61.85
55418;BME280;41287;47.554;7.844;2023-08-17T06:40:40;98106.41;;;23.87;61.78
55418;BME280;41287;47.554;7.844;2023-08-17T06:43:07;98112.69;;;23.87;61.68
55418;BME280;41287;47.554;7.844;2023-08-17T06:45:37;98117.38;;;23.87;61.67
55418;BME280;41287;47.554;7.844;2023-08-17T06:48:02;98118.16;;;23.87;61.38
55418;BME280;41287;47.554;7.844;2023-08-17T06:50:28;98115.44;;;23.87;61.55
55418;BME280;41287;47.554;7.844;2023-08-17T06:52:53;98116.22;;;23.88;61.32
55418;BME280;41287;47.554;7.844;2023-08-17T06:55:21;98114.63;;;23.87;61.33
55418;BME280;41287;47.554;7.844;2023-08-17T06:57:49;98112.69;;;23.87;61.31
55418;BME280;41287;47.554;7.844;2023-08-17T07:00:17;98111.50;;;23.88;61.29
55418;BME280;41287;47.554;7.844;2023-08-17T07:02:47;98116.22;;;23.88;61.08
55418;BME280;41287;47.554;7.844;2023-08-17T07:05:14;98118.16;;;23.87;61.20
55418;BME280;41287;47.554;7.844;2023-08-17T07:07:40;98117.38;;;23.87;61.22
55418;BME280;41287;47.554;7.844;2023-08-17T07:10:05;98116.22;;;23.88;61.39
55418;BME280;41287;47.554;7.844;2023-08-17T07:12:34;98117.38;;;23.87;61.12
55418;BME280;41287;47.554;7.844;2023-08-17T07:14:59;98115.44;;;23.87;61.07
55418;BME280;41287;47.554;7.844;2023-08-17T07:17:25;98117.38;;;23.87;61.24
55418;BME280;41287;47.554;7.844;2023-08-17T07:19:50;98124.44;;;23.88;61.27
55418;BME280;41287;47.554;7.844;2023-08-17T07:22:15;98127.16;;;23.88;61.25
55418;BME280;41287;47.554;7.844;2023-08-17T07:24:45;98110.75;;;23.88;60.91
55418;BME280;41287;47.554;7.844;2023-08-17T07:27:11;98114.63;;;23.87;61.03
55418;BME280;41287;47.554;7.844;2023-08-17T07:29:36;98118.16;;;23.87;61.19
55418;BME280;41287;47.554;7.844;2023-08-17T07:32:01;98121.69;;;23.88;60.96
55418;BME280;41287;47.554;7.844;2023-08-17T07:34:28;98124.44;;;23.88;61.26
55418;BME280;41287;47.554;7.844;2023-08-17T07:36:55;98125.19;;;23.88;61.11
55418;BME280;41287;47.554;7.844;2023-08-17T07:39:20;98133.41;;;23.88;61.06
55418;BME280;41287;47.554;7.844;2023-08-17T07:41:45;98129.91;;;23.88;61.07
55418;BME280;41287;47.554;7.844;2023-08-17T07:44:12;98134.56;;;23.87;61.22
55418;BME280;41287;47.554;7.844;2023-08-17T07:46:40;98134.56;;;23.87;61.15
55418;BME280;41287;47.554;7.844;2023-08-17T07:49:05;98139.25;;;23.87;60.91
55418;BME280;41287;47.554;7.844;2023-08-17T07:51:31;98137.31;;;23.87;60.78
55418;BME280;41287;47.554;7.844;2023-08-17T07:53:59;98141.59;;;23.88;60.84
55418;BME280;41287;47.554;7.844;2023-08-17T07:56:25;98144.34;;;23.88;61.06
55418;BME280;41287;47.554;7.844;2023-08-17T07:58:50;98143.59;;;23.88;60.93
55418;BME280;41287;47.554;7.844;2023-08-17T08:01:15;98145.53;;;23.87;60.87
55418;BME280;41287;47.554;7.844;2023-08-17T08:03:41;98149.06;;;23.88;61.01
55418;BME280;41287;47.554;7.844;2023-08-17T08:06:08;98151.78;;;23.88;60.86
55418;BME280;41287;47.554;7.844;2023-08-17T08:08:34;98153.34;;;23.89;60.93
55418;BME280;41287;47.554;7.844;2023-08-17T08:10:59;98162.75;;;23.88;61.12
55418;BME280;41287;47.554;7.844;2023-08-17T08:13:24;98165.47;;;23.88;60.92
55418;BME280;41287;47.554;7.844;2023-08-17T08:15:50;98165.47;;;23.88;61.01
55418;BME280;41287;47.554;7.844;2023-08-17T08:18:15;98154.53;;;23.88;60.89
55418;BME280;41287;47.554;7.844;2023-08-17T08:20:41;98158.41;;;23.87;60.71
55418;BME280;41287;47.554;7.844;2023-08-17T08:23:06;98162.75;;;23.88;60.77
55418;BME280;41287;47.554;7.844;2023-08-17T08:25:31;98162.75;;;23.88;60.96
55418;BME280;41287;47.554;7.844;2023-08-17T08:27:57;98161.94;;;23.87;60.69
55418;BME280;41287;47.554;7.844;2023-08-17T08:30:22;98165.47;;;23.88;60.94
55418;BME280;41287;47.554;7.844;2023-08-17T08:32:47;98168.22;;;23.88;61.05
55418;BME280;41287;47.554;7.844;2023-08-17T08:35:13;98165.47;;;23.88;60.74
55418;BME280;41287;47.554;7.844;2023-08-17T08:37:40;98163.88;;;23.87;60.91
55418;BME280;41287;47.554;7.844;2023-08-17T08:40:10;98160.00;;;23.88;61.05
55418;BME280;41287;47.554;7.844;2023-08-17T08:42:36;98172.50;;;23.89;60.82
55418;BME280;41287;47.554;7.844;2023-08-17T08:45:01;98172.91;;;23.87;60.96
55418;BME280;41287;47.554;7.844;2023-08-17T08:47:28;98172.09;;;23.87;60.98
55418;BME280;41287;47.554;7.844;2023-08-17T08:50:01;98182.25;;;23.86;60.61
55418;BME280;41287;47.554;7.844;2023-08-17T08:52:33;98178.72;;;23.86;60.90
55418;BME280;41287;47.554;7.844;2023-08-17T08:55:05;98180.31;;;23.87;60.74
55418;BME280;41287;47.554;7.844;2023-08-17T08:57:34;98172.91;;;23.87;60.78
55418;BME280;41287;47.554;7.844;2023-08-17T08:59:59;98177.56;;;23.87;60.96
55418;BME280;41287;47.554;7.844;2023-08-17T09:02:27;98173.69;;;23.88;60.70
55418;BME280;41287;47.554;7.844;2023-08-17T09:04:52;98183.84;;;23.87;60.91
55418;BME280;41287;47.554;7.844;2023-08-17T09:07:18;98181.91;;;23.88;60.91
55418;BME280;41287;47.554;7.844;2023-08-17T09:09:46;98179.16;;;23.88;60.78
55418;BME280;41287;47.554;7.844;2023-08-17T09:12:12;98179.16;;;23.88;60.92
55418;BME280;41287;47.554;7.844;2023-08-17T09:14:37;98175.63;;;23.87;60.58
55418;BME280;41287;47.554;7.844;2023-08-17T09:17:05;98172.09;;;23.87;60.75
55418;BME280;41287;47.554;7.844;2023-08-17T09:19:33;98178.38;;;23.87;60.92
55418;BME280;41287;47.554;7.844;2023-08-17T09:21:59;98175.63;;;23.87;60.69
55418;BME280;41287;47.554;7.844;2023-08-17T09:24:36;98170.50;;;23.86;60.69
55418;BME280;41287;47.554;7.844;2023-08-17T09:27:02;98172.91;;;23.87;60.68
55418;BME280;41287;47.554;7.844;2023-08-17T09:29:27;98173.69;;;23.88;60.56
55418;BME280;41287;47.554;7.844;2023-08-17T09:31:53;98176.41;;;23.88;60.70
55418;BME280;41287;47.554;7.844;2023-08-17T09:34:19;98170.94;;;23.88;60.88
55418;BME280;41287;47.554;7.844;2023-08-17T09:36:47;98170.16;;;23.87;60.88
55418;BME280;41287;47.554;7.844;2023-08-17T09:39:12;98170.16;;;23.87;60.89
55418;BME280;41287;47.554;7.844;2023-08-17T09:41:43;98171.31;;;23.86;60.53
55418;BME280;41287;47.554;7.844;2023-08-17T09:44:09;98172.09;;;23.87;60.75
55418;BME280;41287;47.554;7.844;2023-08-17T09:46:34;98164.69;;;23.87;60.79
55418;BME280;41287;47.554;7.844;2023-08-17T09:49:02;98163.50;;;23.88;60.72
55418;BME280;41287;47.554;7.844;2023-08-17T09:51:30;98156.47;;;23.87;60.54
55418;BME280;41287;47.554;7.844;2023-08-17T09:53:55;98156.47;;;23.87;60.65
55418;BME280;41287;47.554;7.844;2023-08-17T09:56:22;98161.94;;;23.87;60.61
55418;BME280;41287;47.554;7.844;2023-08-17T09:58:49;98151.00;;;23.87;60.81
55418;BME280;41287;47.554;7.844;2023-08-17T10:01:15;98156.47;;;23.87;60.61
55418;BME280;41287;47.554;7.844;2023-08-17T10:03:43;98153.72;;;23.87;60.78
55418;BME280;41287;47.554;7.844;2023-08-17T10:06:12;98140.06;;;23.87;60.48
55418;BME280;41287;47.554;7.844;2023-08-17T10:08:43;98131.84;;;23.87;60.76
55418;BME280;41287;47.554;7.844;2023-08-17T10:11:09;98134.56;;;23.87;60.59
55418;BME280;41287;47.554;7.844;2023-08-17T10:13:39;98132.63;;;23.88;60.47
55418;BME280;41287;47.554;7.844;2023-08-17T10:16:09;98133.78;;;23.87;60.82
55418;BME280;41287;47.554;7.844;2023-08-17T10:19:25;98136.09;;;23.85;60.69
55418;BME280;41287;47.554;7.844;2023-08-17T10:21:47;98134.56;;;23.87;60.78
55418;BME280;41287;47.554;7.844;2023-08-17T10:24:14;98125.56;;;23.87;60.58
55418;BME280;41287;47.554;7.844;2023-08-17T10:26:40;98118.16;;;23.87;60.40
55418;BME280;41287;47.554;7.844;2023-08-17T10:29:06;98111.91;;;23.87;60.85
55418;BME280;41287;47.554;7.844;2023-08-17T10:31:34;98105.63;;;23.86;60.74
55418;BME280;41287;47.554;7.844;2023-08-17T10:34:00;98105.63;;;23.86;60.69
55418;BME280;41287;47.554;7.844;2023-08-17T10:36:26;98100.16;;;23.86;60.76
55418;BME280;41287;47.554;7.844;2023-08-17T10:39:17;98094.25;;;23.84;60.56
55418;BME280;41287;47.554;7.844;2023-08-17T10:41:51;98092.31;;;23.85;60.72
55418;BME280;41287;47.554;7.844;2023-08-17T10:44:39;98096.19;;;23.84;60.67
55418;BME280;41287;47.554;7.844;2023-08-17T10:47:20;98097.00;;;23.84;60.63
55418;BME280;41287;47.554;7.844;2023-08-17T10:49:48;98095.47;;;23.87;60.50
55418;BME280;41287;47.554;7.844;2023-08-17T10:52:14;98092.75;;;23.87;60.64
55418;BME280;41287;47.554;7.844;2023-08-17T10:54:41;98082.94;;;23.86;60.58
55418;BME280;41287;47.554;7.844;2023-08-17T10:57:29;98072.38;;;23.84;60.57
55418;BME280;41287;47.554;7.844;2023-08-17T11:00:18;98075.88;;;23.85;60.59
55418;BME280;41287;47.554;7.844;2023-08-17T11:02:56;98071.22;;;23.85;60.34
55418;BME280;41287;47.554;7.844;2023-08-17T11:08:09;98053.63;;;23.86;60.63
55418;BME280;41287;47.554;7.844;2023-08-17T11:10:35;98044.63;;;23.86;60.51
55418;BME280;41287;47.554;7.844;2023-08-17T11:13:01;98043.47;;;23.87;60.47
55418;BME280;41287;47.554;7.844;2023-08-17T11:15:44;98036.00;;;23.84;60.56
55418;BME280;41287;47.554;7.844;2023-08-17T11:18:11;98030.59;;;23.87;60.60
55418;BME280;41287;47.554;7.844;2023-08-17T11:20:39;98023.53;;;23.86;60.55
55418;BME280;41287;47.554;7.844;2023-08-17T11:23:08;98029.00;;;23.86;60.39
55418;BME280;41287;47.554;7.844;2023-08-17T11:25:34;98024.31;;;23.87;60.27
55418;BME280;41287;47.554;7.844;2023-08-17T11:28:00;98023.53;;;23.86;60.53
55418;BME280;41287;47.554;7.844;2023-08-17T11:30:27;98018.84;;;23.87;60.48
55418;BME280;41287;47.554;7.844;2023-08-17T11:32:54;98018.06;;;23.86;60.73
55418;BME280;41287;47.554;7.844;2023-08-17T11:35:20;98007.91;;;23.87;60.44
55418;BME280;41287;47.554;7.844;2023-08-17T11:37:47;98012.22;;;23.88;60.33
55418;BME280;41287;47.554;7.844;2023-08-17T11:40:14;97997.75;;;23.87;60.57
55418;BME280;41287;47.554;7.844;2023-08-17T11:42:40;97983.63;;;23.85;60.28
55418;BME280;41287;47.554;7.844;2023-08-17T11:45:06;97984.06;;;23.87;60.30
55418;BME280;41287;47.554;7.844;2023-08-17T11:47:38;97984.44;;;23.86;60.30
55418;BME280;41287;47.554;7.844;2023-08-17T11:50:09;97986.00;;;23.87;60.37
55418;BME280;41287;47.554;7.844;2023-08-17T11:52:37;97975.84;;;23.87;60.25
55418;BME280;41287;47.554;7.844;2023-08-17T11:55:06;97972.31;;;23.87;60.50
55418;BME280;41287;47.554;7.844;2023-08-17T11:57:32;97983.28;;;23.87;60.44
55418;BME280;41287;47.554;7.844;2023-08-17T11:59:59;97990.34;;;23.88;60.57
55418;BME280;41287;47.554;7.844;2023-08-17T12:02:26;97972.31;;;23.87;60.54
55418;BME280;41287;47.554;7.844;2023-08-17T12:04:52;97982.13;;;23.88;60.21
55418;BME280;41287;47.554;7.844;2023-08-17T12:07:18;97973.13;;;23.87;60.32
55418;BME280;41287;47.554;7.844;2023-08-17T12:09:45;97972.31;;;23.87;60.58
55418;BME280;41287;47.554;7.844;2023-08-17T12:12:11;97975.84;;;23.87;60.29
55418;BME280;41287;47.554;7.844;2023-08-17T12:14:41;97971.94;;;23.88;60.17
55418;BME280;41287;47.554;7.844;2023-08-17T12:17:06;97966.84;;;23.87;60.37
55418;BME280;41287;47.554;7.844;2023-08-17T12:19:32;97959.44;;;23.87;60.46
55418;BME280;41287;47.554;7.844;2023-08-17T12:21:57;97955.91;;;23.87;60.38
55418;BME280;41287;47.554;7.844;2023-08-17T12:24:25;97957.84;;;23.86;60.38
55418;BME280;41287;47.554;7.844;2023-08-17T12:26:51;97953.19;;;23.87;60.34
55418;BME280;41287;47.554;7.844;2023-08-17T12:29:16;97957.50;;;23.88;60.49
55418;BME280;41287;47.554;7.844;2023-08-17T12:31:42;97948.50;;;23.87;60.26
55418;BME280;41287;47.554;7.844;2023-08-17T12:34:07;97956.69;;;23.87;60.26
55418;BME280;41287;47.554;7.844;2023-08-17T12:36:33;97968.44;;;23.88;60.31
55418;BME280;41287;47.554;7.844;2023-08-17T12:39:00;97962.19;;;23.87;60.51
55418;BME280;41287;47.554;7.844;2023-08-17T12:41:25;97960.22;;;23.88;60.30
55418;BME280;41287;47.554;7.844;2023-08-17T12:43:51;97960.22;;;23.88;60.42
55418;BME280;41287;47.554;7.844;2023-08-17T12:46:19;97960.22;;;23.88;60.43
55418;BME280;41287;47.554;7.844;2023-08-17T12:48:46;97957.50;;;23.88;60.44
55418;BME280;41287;47.554;7.844;2023-08-17T12:51:12;97953.97;;;23.87;60.45
55418;BME280;41287;47.554;7.844;2023-08-17T12:53:37;97957.50;;;23.88;60.39
55418;BME280;41287;47.554;7.844;2023-08-17T12:56:03;97952.78;;;23.88;60.36
55418;BME280;41287;47.554;7.844;2023-08-17T12:58:28;97952.78;;;23.88;60.19
55418;BME280;41287;47.554;7.844;2023-08-17T13:00:54;97957.50;;;23.88;60.61
55418;BME280;41287;47.554;7.844;2023-08-17T13:03:20;97959.44;;;23.87;60.33